EDT,Max TemperatureF,Mean TemperatureF,Min TemperatureF,Max Dew PointF,MeanDew PointF,Min DewpointF,Max Humidity, Mean Humidity, Min Humidity, Max Sea Level PressureIn, Mean Sea Level PressureIn, Min Sea Level PressureIn, Max VisibilityMiles, Mean VisibilityMiles, Min VisibilityMiles, Max Wind SpeedMPH, Mean Wind SpeedMPH, Max Gust SpeedMPH,PrecipitationIn, CloudCover, Events, WindDirDegrees
2013-3-1,26,24,21,20,17,15,83,77,71,30.12,30.08,29.99,10,10,4,18,14,23,0.00,7,Snow,350
2013-3-2,24,20,15,18,16,12,85,79,75,30.10,30.08,30.03,10,10,5,15,11,18,0.00,8,Snow,336
2013-3-3,25,18,10,14,11,6,87,77,62,30.04,30.01,29.98,10,9,1,14,9,,0.00,5,Snow,334
2013-3-4,30,19,8,18,11,5,89,77,47,30.12,30.08,30.03,10,10,10,12,5,,0.00,0,,321
2013-3-5,32,21,10,28,18,7,91,83,76,30.12,30.05,29.97,10,9,2,17,6,24,0.00,6,,39
2013-3-6,34,32,29,30,28,27,94,85,77,30.19,30.12,29.98,10,10,7,15,10,21,0.00,7,Snow,39
2013-3-7,35,28,22,30,23,18,96,77,51,30.40,30.29,30.19,10,9,2,16,6,20,0.00,6,Snow,319
2013-3-8,37,28,20,30,25,17,95,84,71,30.47,30.43,30.38,10,10,10,9,4,,0.00,3,,219
2013-3-9,39,30,21,31,27,20,96,86,57,30.39,30.24,30.04,10,7,0,13,3,16,0.00,4,Fog,165
2013-3-10,44,38,33,40,35,30,95,90,80,30.06,29.89,29.79,10,8,3,9,3,,0.01,8,Rain,180
2013-3-11,44,40,35,44,38,33,97,95,86,29.81,29.58,29.41,10,4,0,22,6,32,0.27,8,Fog-Rain,173
2013-3-12,36,32,29,33,26,21,92,78,62,29.82,29.70,29.50,10,10,4,21,14,31,0.00,8,Rain-Snow,249
2013-3-13,31,26,21,24,13,2,89,60,30,30.12,29.92,29.78,10,10,0,25,12,32,0.00,5,Snow,292
2013-3-14,36,26,17,25,16,10,86,67,37,30.19,30.12,29.98,10,10,10,16,8,23,0.00,1,,284
2013-3-15,39,33,27,30,22,16,87,65,41,29.98,29.86,29.80,10,10,3,17,9,24,0.00,5,Snow,299
2013-3-16,27,23,19,22,18,12,94,82,58,30.01,29.92,29.85,10,4,0,18,10,22,0.00,8,Snow,25
2013-3-17,21,14,6,15,9,2,95,73,52,30.31,30.21,30.01,10,9,0,13,5,18,0.00,2,Fog-Snow,22
2013-3-18,32,22,11,31,23,6,98,80,63,30.24,29.88,29.48,10,7,0,20,10,28,0.01,4,Snow,113
2013-3-19,32,26,21,31,21,15,98,79,62,29.78,29.60,29.47,10,8,3,25,15,34,0.00,8,Snow,240
2013-3-20,27,18,8,17,12,7,94,72,45,29.84,29.81,29.78,10,10,2,21,10,23,0.00,4,Snow,255
2013-3-21,30,22,14,21,17,9,91,73,56,29.86,29.79,29.74,10,9,2,20,11,28,0.00,7,Snow,300
2013-3-22,34,28,23,24,21,16,78,71,61,29.99,29.90,29.86,10,10,10,17,10,23,0.00,8,Snow,296
2013-3-23,36,28,21,28,24,18,89,77,59,30.07,30.04,29.99,10,10,10,12,5,,0.00,7,,321
2013-3-24,33,28,22,28,24,20,94,83,71,30.06,29.93,29.78,10,10,10,18,7,23,0.00,3,,14
2013-3-25,40,36,32,30,27,25,84,74,56,29.91,29.79,29.73,10,10,10,22,16,31,0.00,7,,19
2013-3-26,45,38,30,30,25,18,92,63,37,30.05,29.98,29.91,10,10,10,17,9,24,0.00,7,,326
2013-3-27,44,38,32,30,27,22,81,67,46,30.14,30.07,30.03,10,10,10,18,11,25,0.00,7,,302
2013-3-28,45,36,28,30,28,24,90,69,49,30.23,30.19,30.14,10,10,10,12,7,17,0.00,4,,317
2013-3-29,47,36,24,25,22,18,90,63,35,30.24,30.22,30.19,10,10,10,12,4,,0.00,1,,333
2013-3-30,50,35,20,26,21,17,91,59,31,30.20,30.07,29.85,10,10,10,22,4,30,0.00,2,,185
2013-3-31,56,44,32,42,34,23,97,73,40,29.85,29.64,29.51,10,8,3,24,10,34,0.06,6,Rain-Snow,231